This is the latest recevied weather packets stored in our database for station/object KE8BSM. If no packets are shown the sender has not sent any weather packets the latest 10 day(s).
| Time | Temp. | Humidity | Pressure | Rain* | Wind** | Luminosity | Snow |
|---|---|---|---|---|---|---|---|
| 1777946118 | 18.89° C | 63% | 997.3 hPa | 0 mm | - | 0 W/m² | - |
| 1777937717 | 23.33° C | 40% | 996.1 hPa | 0 mm | - | 49 W/m² | - |
| 1777934118 | 23.89° C | 39% | 997.3 hPa | 0 mm | - | 178 W/m² | - |
| 1777931716 | 23.33° C | 39% | 997.6 hPa | 0 mm | - | 247 W/m² | - |
| 1777927517 | 23.33° C | 40% | 998.5 hPa | 0 mm | - | 482 W/m² | - |
| 1777922718 | 22.78° C | 42% | 999.2 hPa | 0 mm | - | 458 W/m² | - |
| 1777922118 | 22.78° C | 39% | 999.2 hPa | 0 mm | - | 592 W/m² | - |
| 1777921535 | 22.78° C | 36% | 999.3 hPa | 0 mm | - | 737 W/m² | - |
| 1777920915 | 22.78° C | 34% | 999.1 hPa | 0 mm | - | 686 W/m² | - |
| 1777919716 | 22.22° C | 35% | 999.2 hPa | 0 mm | - | 703 W/m² | - |
| 1777919116 | 22.22° C | 33% | 999.2 hPa | 0 mm | - | 731 W/m² | - |
| 1777912518 | 21.11° C | 37% | 1000.5 hPa | 0 mm | - | 275 W/m² | - |
| 1777907116 | 17.78° C | 54% | 1001.8 hPa | 0 mm | - | 62 W/m² | - |
| 1777904120 | 16.11° C | 61% | 1002.4 hPa | 0 mm | - | 57 W/m² | - |
| 1777894528 | 9.44° C | 86% | 1002.8 hPa | 0 mm | - | 24 W/m² | - |
| 1777893328 | 8.89° C | 87% | 1002.8 hPa | 0 mm | - | 17 W/m² | - |
| 1777886150 | 8.89° C | 86% | 1002.9 hPa | 0 mm | - | 0 W/m² | - |
| 1777875915 | 10.56° C | 78% | 1004.2 hPa | 0 mm | - | 0 W/m² | - |
| 1777874156 | 11.11° C | 77% | 1004.6 hPa | 0 mm | - | 0 W/m² | - |
| 1777865718 | 11.11° C | 76% | 1005.8 hPa | 0 mm | - | 0 W/m² | - |
| 1777863316 | 11.11° C | 76% | 1006.1 hPa | 0 mm | - | 0 W/m² | - |
| 1777862715 | 11.11° C | 73% | 1006.1 hPa | 0 mm | - | 0 W/m² | - |
| 1777859116 | 11.67° C | 69% | 1006 hPa | 0 mm | - | 0 W/m² | - |
| 1777857317 | 12.22° C | 67% | 1006 hPa | 0 mm | - | 0 W/m² | - |
| 1777844118 | 12.78° C | 64% | 1008.2 hPa | 0 mm | - | 610 W/m² | - |
* Rain latest hour (hover to see other rain measurements)
** Current wind speed in m/s (hover to see current wind gust speed)